الصفحة الرئيسية
METAR-TAF:

METAR-TAF

مطار :

Tumbes, بيرو

دائرة عرض: 03-33S, خط طول: 080-24W, ارتفاع: 25 متر

مراقبة الطقس الحالي

تاريخ ووقت الإصدار 24 دقيقة قبل الساعة 03:00UTC
ريح 5 عقدة من الجنوب الشرقي
درجة الحرارة 24°درجة مئوية
الرطوبة 94%
ضغط 1012 hPa
الرؤية 10 كم أو أكثر
غيوم مفككة على ارتفاع 1400 قدم

METAR: SPME 250300Z 13005KT 9999 BKN014 24/23 Q1012 RMK BIRD HAZARD RWY 32/14 PP000

زمن: 22:24 (03:24 UTC)

توقعات

تاريخ ووقت الإصدار 3ساعات و 24 دقيقة قبل الساعة 00:00UTC
التوقعات صالحة من25 الساعة 00 UTC إلى 25 الساعة 24 UTC
ريح 4 عقدة من الغرب/الجنوب الغربي
الرؤية 10 كم أو أكثر
غيوم متفرقة على ارتفاع 2000 قدم
مؤقت
من 25 الساعة 00 UTC إلى 25 الساعة 04 UTC
غيوم مفككة على ارتفاع 1400 قدم
مؤقت
من 25 الساعة 04 UTC إلى 25 الساعة 08 UTC
مطر,

TAF: SPME 250000Z 2500/2524 25004KT 9999 SCT020 TX33/2519Z TN25/2511Z TEMPO 2500/2504 BKN014 TEMPO 2504/2508 RA

أرصاد الطقس والتوقعات من أكثر من 4000 مطار (تقارير الطقس للمطار METAR والتنبؤ بالطقس بالمطارTAF).

المحطات المتاحة هي النقط الصفراء والحمراء على الخريطة.

حرك المؤشر فوق النقطة لمعرفة اسم المحطة.

ثم انقر لمعرفة أرصاد وتوقعات الطقس.

لتغيير الخارطة: اضغط على الأزرار الخضراء مع رمز الصليب الأسود للتكبير. على الزر الأخضر مع شرطة للتصغير، أو على الأسهم الخضراء للخرائط المجاورة.


METAR-TAF: